Time;durP1;ratioP1;P1;durP2;ratioP2;P2;SDS_P1;SDS_P2;PMS_P1;PMS_P2;Temp;Humidity;BMP_temperature;BMP_pressure;BME280_temperature;BME280_humidity;BME280_pressure;Samples;Min_cycle;Max_cycle;Signal;HPM_P1;HPM_P2
2022/09/21 00:04:24;;;;;;;1.33;0.63;;;;;;;;;;10329009;28;20664;-83
2022/09/21 00:09:25;;;;;;;1.55;0.60;;;;;;;;;;10320114;28;20523;-83
2022/09/21 00:14:30;;;;;;;0.80;0.50;;;;;;;;;;10324644;28;20409;-82
2022/09/21 00:19:31;;;;;;;0.40;0.40;;;;;;;;;;10323574;28;20405;-82
2022/09/21 00:24:34;;;;;;;1.60;0.50;;;;;;;;;;10323725;28;20483;-83
2022/09/21 00:29:37;;;;;;;1.10;0.47;;;;;;;;;;10323645;28;20432;-83
2022/09/21 00:34:38;;;;;;;1.08;0.60;;;;;;;;;;10322693;28;20523;-83
2022/09/21 00:39:40;;;;;;;0.93;0.63;;;;;;;;;;10322397;28;20495;-82
2022/09/21 00:44:44;;;;;;;1.00;0.80;;;;;;;;;;10322762;28;20499;-83
2022/09/21 00:49:49;;;;;;;1.53;0.70;;;;;;;;;;10320613;28;20432;-83
2022/09/21 00:54:54;;;;;;;2.08;0.80;;;;;;;;;;10325675;28;20488;-83
2022/09/21 01:00:01;;;;;;;1.58;0.75;;;;;;;;;;10324959;28;20487;-83
2022/09/21 01:05:04;;;;;;;3.30;1.00;;;;;;;;;;10305019;28;20410;-83
2022/09/21 01:10:11;;;;;;;1.60;0.73;;;;;;;;;;10320121;28;20803;-83
2022/09/21 01:15:22;;;;;;;2.30;0.60;;;;;;;;;;10323819;28;20796;-83
2022/09/21 01:20:55;;;;;;;1.88;0.70;;;;;;;;;;10323655;28;20418;-83
2022/09/21 01:26:07;;;;;;;0.93;0.70;;;;;;;;;;10322471;28;20516;-82
2022/09/21 01:31:17;;;;;;;1.53;0.80;;;;;;;;;;10329763;28;20846;-82
2022/09/21 01:36:24;;;;;;;1.50;0.80;;;;;;;;;;10322551;28;20507;-82
2022/09/21 01:41:30;;;;;;;1.88;0.88;;;;;;;;;;10317872;28;20869;-83
2022/09/21 01:46:34;;;;;;;1.67;0.73;;;;;;;;;;10311507;28;20424;-83
2022/09/21 01:51:42;;;;;;;2.20;1.00;;;;;;;;;;10308546;28;20439;-80
2022/09/21 01:56:48;;;;;;;1.25;0.80;;;;;;;;;;10310099;28;20487;-83
2022/09/21 02:01:56;;;;;;;1.67;0.83;;;;;;;;;;10322401;28;20423;-83
2022/09/21 02:06:58;;;;;;;4.47;0.98;;;;;;;;;;10303251;28;20461;-83
2022/09/21 02:12:00;;;;;;;1.00;0.70;;;;;;;;;;10316601;28;20487;-83
2022/09/21 02:17:15;;;;;;;1.23;0.80;;;;;;;;;;10334470;28;20499;-83
2022/09/21 02:22:28;;;;;;;1.27;0.60;;;;;;;;;;10320789;28;20431;-82
2022/09/21 02:27:36;;;;;;;1.77;0.90;;;;;;;;;;10307996;28;20977;-83
2022/09/21 02:32:50;;;;;;;1.90;0.93;;;;;;;;;;10320108;28;20427;-83
2022/09/21 02:37:55;;;;;;;3.33;1.20;;;;;;;;;;10320313;28;20415;-82
2022/09/21 02:43:02;;;;;;;2.72;1.10;;;;;;;;;;10321072;28;20420;-83
2022/09/21 02:48:08;;;;;;;1.90;1.00;;;;;;;;;;10320245;28;20424;-82
2022/09/21 02:53:13;;;;;;;1.03;0.90;;;;;;;;;;10318964;28;20405;-83
2022/09/21 02:58:17;;;;;;;1.80;1.13;;;;;;;;;;10287840;28;20424;-82
2022/09/21 03:03:23;;;;;;;1.33;0.90;;;;;;;;;;10315769;28;20499;-83
2022/09/21 03:08:25;;;;;;;1.27;0.87;;;;;;;;;;10319912;28;20461;-83
2022/09/21 03:13:27;;;;;;;1.92;0.90;;;;;;;;;;10318913;28;21226;-82
2022/09/21 03:18:31;;;;;;;1.27;1.00;;;;;;;;;;10318271;28;20405;-82
2022/09/21 03:23:33;;;;;;;1.50;1.02;;;;;;;;;;10290932;28;20941;-82
2022/09/21 03:28:35;;;;;;;2.10;1.00;;;;;;;;;;10286264;28;20914;-83
2022/09/21 03:33:38;;;;;;;1.40;1.00;;;;;;;;;;10286560;28;20901;-83
2022/09/21 03:38:40;;;;;;;2.53;0.90;;;;;;;;;;10287279;28;20409;-82
2022/09/21 03:43:42;;;;;;;1.30;0.83;;;;;;;;;;10287074;28;20406;-82
2022/09/21 03:48:47;;;;;;;1.60;0.90;;;;;;;;;;10305866;28;20516;-82
2022/09/21 03:53:49;;;;;;;1.17;0.95;;;;;;;;;;10298618;28;20409;-84
2022/09/21 03:58:51;;;;;;;1.50;1.27;;;;;;;;;;10303659;28;20406;-82
2022/09/21 04:03:54;;;;;;;1.33;1.00;;;;;;;;;;10302580;28;20492;-83
2022/09/21 04:08:56;;;;;;;1.33;1.20;;;;;;;;;;10301329;28;20517;-83
2022/09/21 04:13:58;;;;;;;2.53;1.10;;;;;;;;;;10311723;28;20408;-83
2022/09/21 04:19:01;;;;;;;1.40;1.15;;;;;;;;;;10320443;28;20432;-83
2022/09/21 04:24:04;;;;;;;1.90;1.23;;;;;;;;;;10319729;28;20404;-83
2022/09/21 04:29:05;;;;;;;1.48;0.98;;;;;;;;;;10319245;28;20440;-83
2022/09/21 04:34:12;;;;;;;1.10;1.00;;;;;;;;;;10318652;28;20428;-83
2022/09/21 04:39:13;;;;;;;2.00;1.13;;;;;;;;;;10321710;28;20871;-83
2022/09/21 04:44:17;;;;;;;4.43;2.20;;;;;;;;;;10316204;28;20402;-81
2022/09/21 04:49:20;;;;;;;3.17;1.08;;;;;;;;;;10315954;28;20455;-83
2022/09/21 04:54:22;;;;;;;1.85;1.10;;;;;;;;;;10312758;28;20462;-83
2022/09/21 04:59:25;;;;;;;1.63;0.82;;;;;;;;;;10313914;28;20455;-83
2022/09/21 05:04:28;;;;;;;1.87;1.17;;;;;;;;;;10301924;28;20768;-82
2022/09/21 05:14:49;;;;;;;2.07;1.10;;;;;;;;;;10283844;28;20391;-82
2022/09/21 05:19:53;;;;;;;2.65;1.17;;;;;;;;;;10293635;28;20420;-83
2022/09/21 05:24:55;;;;;;;3.50;1.20;;;;;;;;;;10320601;28;20404;-83
2022/09/21 05:29:57;;;;;;;3.50;1.10;;;;;;;;;;10318022;28;20443;-83
2022/09/21 05:35:07;;;;;;;1.97;1.30;;;;;;;;;;10310648;28;20405;-84
2022/09/21 05:40:11;;;;;;;2.15;1.13;;;;;;;;;;10318496;28;20417;-82
2022/09/21 05:45:15;;;;;;;1.83;1.47;;;;;;;;;;10319125;28;20400;-83
2022/09/21 05:50:33;;;;;;;2.73;0.90;;;;;;;;;;10319150;28;20427;-82
2022/09/21 05:55:46;;;;;;;1.57;1.07;;;;;;;;;;10321415;28;20495;-80
2022/09/21 06:00:59;;;;;;;0.70;0.70;;;;;;;;;;10321444;28;20506;-83
2022/09/21 06:06:02;;;;;;;1.00;0.80;;;;;;;;;;10321373;28;20496;-82
2022/09/21 06:11:05;;;;;;;1.17;0.80;;;;;;;;;;10321092;28;20424;-82
2022/09/21 06:16:07;;;;;;;1.75;0.55;;;;;;;;;;10321700;28;20412;-82
2022/09/21 06:21:10;;;;;;;1.20;0.50;;;;;;;;;;10320963;28;20397;-82
2022/09/21 06:26:12;;;;;;;1.80;0.50;;;;;;;;;;10319710;28;20981;-80
2022/09/21 06:31:14;;;;;;;0.73;0.60;;;;;;;;;;10319351;28;20529;-82
2022/09/21 06:36:17;;;;;;;0.87;0.50;;;;;;;;;;10320397;28;20401;-82
2022/09/21 06:41:19;;;;;;;1.13;0.60;;;;;;;;;;10323180;28;20480;-83
2022/09/21 06:46:21;;;;;;;0.80;0.50;;;;;;;;;;10320545;28;20415;-83
2022/09/21 06:51:24;;;;;;;1.00;0.47;;;;;;;;;;10319493;28;20503;-83
2022/09/21 06:56:26;;;;;;;1.10;0.50;;;;;;;;;;10318900;28;21020;-82
2022/09/21 07:01:28;;;;;;;1.80;0.50;;;;;;;;;;10319552;28;20423;-83
2022/09/21 07:06:31;;;;;;;1.00;0.57;;;;;;;;;;10325841;28;20415;-83
2022/09/21 07:11:33;;;;;;;1.77;0.63;;;;;;;;;;10319689;28;20428;-81
2022/09/21 07:16:34;;;;;;;1.00;0.50;;;;;;;;;;10353686;28;20486;-82
2022/09/21 07:21:38;;;;;;;1.70;0.50;;;;;;;;;;10323005;28;20404;-83
2022/09/21 07:26:39;;;;;;;0.83;0.60;;;;;;;;;;10319557;28;21018;-83
2022/09/21 07:31:44;;;;;;;0.40;0.40;;;;;;;;;;10320102;28;20424;-82
2022/09/21 07:36:47;;;;;;;1.52;0.60;;;;;;;;;;10319572;28;20408;-83
2022/09/21 07:41:49;;;;;;;2.45;0.60;;;;;;;;;;10318053;28;20416;-82
2022/09/21 07:46:50;;;;;;;1.67;0.57;;;;;;;;;;10319369;28;20488;-83
2022/09/21 07:51:54;;;;;;;1.15;0.50;;;;;;;;;;10318853;28;20460;-83
2022/09/21 08:02:15;;;;;;;2.33;0.60;;;;;;;;;;10322124;28;20441;-83
2022/09/21 08:07:18;;;;;;;0.88;0.40;;;;;;;;;;10320892;28;20484;-82
2022/09/21 08:12:20;;;;;;;0.73;0.50;;;;;;;;;;10319400;28;20853;-83
2022/09/21 08:17:23;;;;;;;2.22;0.60;;;;;;;;;;10327209;28;20905;-82
2022/09/21 08:22:26;;;;;;;0.50;0.40;;;;;;;;;;10319759;28;20487;-83
2022/09/21 08:27:29;;;;;;;1.00;0.40;;;;;;;;;;10320281;28;20476;-82
2022/09/21 08:32:31;;;;;;;1.52;0.60;;;;;;;;;;10325678;28;20504;-83
2022/09/21 08:37:37;;;;;;;1.13;0.60;;;;;;;;;;10327295;28;20523;-83
2022/09/21 08:42:42;;;;;;;1.10;0.50;;;;;;;;;;10325616;28;20500;-82
2022/09/21 08:47:48;;;;;;;1.95;0.80;;;;;;;;;;10323671;28;20411;-83
2022/09/21 08:52:54;;;;;;;0.47;0.40;;;;;;;;;;10324509;28;20518;-83
2022/09/21 08:57:55;;;;;;;0.93;0.43;;;;;;;;;;10324681;28;20411;-82
2022/09/21 09:03:24;;;;;;;0.32;0.30;;;;;;;;;;10322865;28;20413;-83
2022/09/21 09:08:54;;;;;;;0.30;0.25;;;;;;;;;;10324004;28;20419;-83
2022/09/21 09:14:25;;;;;;;1.05;0.30;;;;;;;;;;10323349;28;20797;-83
2022/09/21 09:19:34;;;;;;;0.40;0.40;;;;;;;;;;10314813;28;20505;-83
2022/09/21 09:24:40;;;;;;;0.80;0.40;;;;;;;;;;10324012;28;20425;-83
2022/09/21 09:29:49;;;;;;;1.80;0.50;;;;;;;;;;10322951;28;20431;-82
2022/09/21 09:34:57;;;;;;;1.10;0.32;;;;;;;;;;10323418;28;20401;-83
2022/09/21 09:40:01;;;;;;;1.60;0.40;;;;;;;;;;10323083;28;20946;-83
2022/09/21 09:45:35;;;;;;;0.40;0.40;;;;;;;;;;10322269;28;20413;-83
2022/09/21 09:50:39;;;;;;;1.35;0.50;;;;;;;;;;10315952;28;20515;-83
2022/09/21 09:55:46;;;;;;;0.30;0.30;;;;;;;;;;10322299;28;20786;-82
2022/09/21 10:00:51;;;;;;;0.50;0.40;;;;;;;;;;10322110;28;20471;-82
2022/09/21 10:05:54;;;;;;;0.57;0.38;;;;;;;;;;10322530;28;20416;-81
2022/09/21 10:10:57;;;;;;;0.50;0.40;;;;;;;;;;10321529;28;20428;-81
2022/09/21 10:16:01;;;;;;;0.40;0.40;;;;;;;;;;10321927;28;20479;-81
2022/09/21 10:21:06;;;;;;;0.43;0.40;;;;;;;;;;10321681;28;20419;-81
2022/09/21 10:26:12;;;;;;;0.60;0.40;;;;;;;;;;10320597;28;20483;-81
2022/09/21 10:31:21;;;;;;;0.50;0.40;;;;;;;;;;10321293;28;20425;-80
2022/09/21 10:36:29;;;;;;;5.30;0.53;;;;;;;;;;10321053;28;20761;-83
2022/09/21 10:41:32;;;;;;;1.13;0.50;;;;;;;;;;10320880;28;20405;-80
2022/09/21 10:46:35;;;;;;;1.30;0.40;;;;;;;;;;10320577;28;20992;-83
2022/09/21 10:51:38;;;;;;;1.20;0.40;;;;;;;;;;10320690;28;20426;-81
2022/09/21 10:56:51;;;;;;;0.53;0.40;;;;;;;;;;10319950;28;20408;-82
2022/09/21 11:01:54;;;;;;;1.10;0.40;;;;;;;;;;10320587;28;20487;-83
2022/09/21 11:07:02;;;;;;;0.73;0.40;;;;;;;;;;10325379;28;20405;-83
2022/09/21 11:12:22;;;;;;;0.60;0.45;;;;;;;;;;10360258;28;20831;-82
2022/09/21 11:17:33;;;;;;;1.20;0.60;;;;;;;;;;10347057;28;20409;-82
2022/09/21 11:22:43;;;;;;;0.82;0.52;;;;;;;;;;10309527;28;20511;-82
2022/09/21 11:28:02;;;;;;;1.35;0.40;;;;;;;;;;10314888;28;20496;-82
2022/09/21 11:33:15;;;;;;;1.00;0.70;;;;;;;;;;10314756;28;20436;-82
2022/09/21 11:38:31;;;;;;;1.73;0.52;;;;;;;;;;10314189;28;20467;-82
2022/09/21 11:43:53;;;;;;;0.55;0.50;;;;;;;;;;10315020;28;20401;-82
2022/09/21 11:49:09;;;;;;;1.00;0.57;;;;;;;;;;10314980;28;20445;-82
2022/09/21 11:54:39;;;;;;;0.80;0.40;;;;;;;;;;10313802;28;20495;-83
2022/09/21 11:59:58;;;;;;;0.70;0.40;;;;;;;;;;10313905;28;20818;-82
2022/09/21 12:05:06;;;;;;;0.50;0.33;;;;;;;;;;10321158;28;20412;-82
2022/09/21 12:10:18;;;;;;;0.70;0.40;;;;;;;;;;10326773;28;20428;-82
2022/09/21 12:15:26;;;;;;;0.73;0.50;;;;;;;;;;10326575;28;20416;-82
2022/09/21 12:20:36;;;;;;;0.50;0.50;;;;;;;;;;10326684;28;20496;-80
2022/09/21 12:25:41;;;;;;;1.02;0.30;;;;;;;;;;10325705;28;20405;-81
2022/09/21 12:30:49;;;;;;;0.57;0.57;;;;;;;;;;10324682;28;20429;-81
2022/09/21 12:35:57;;;;;;;0.40;0.40;;;;;;;;;;10322584;28;20415;-82
2022/09/21 12:41:10;;;;;;;0.65;0.40;;;;;;;;;;10323709;28;20421;-82
2022/09/21 12:46:18;;;;;;;1.35;0.60;;;;;;;;;;10318545;28;20412;-82
2022/09/21 12:51:25;;;;;;;1.40;0.40;;;;;;;;;;10308693;28;20511;-81
2022/09/21 12:56:39;;;;;;;1.60;0.43;;;;;;;;;;10316613;28;20791;-79
2022/09/21 13:01:46;;;;;;;0.40;0.37;;;;;;;;;;10320091;28;20450;-80
2022/09/21 13:07:20;;;;;;;1.60;0.40;;;;;;;;;;10318342;28;20504;-82
2022/09/21 13:12:26;;;;;;;1.67;0.50;;;;;;;;;;10313524;28;20504;-82
2022/09/21 13:17:32;;;;;;;1.20;0.50;;;;;;;;;;10311634;28;20784;-82
2022/09/21 13:22:35;;;;;;;1.67;0.50;;;;;;;;;;10313710;28;20912;-82
2022/09/21 13:28:00;;;;;;;1.27;0.60;;;;;;;;;;10320600;28;20443;-82
2022/09/21 13:33:25;;;;;;;0.55;0.50;;;;;;;;;;10310280;28;20449;-82
2022/09/21 13:38:29;;;;;;;1.10;0.50;;;;;;;;;;10302157;28;20412;-82
2022/09/21 13:44:02;;;;;;;0.70;0.50;;;;;;;;;;10300584;28;20699;-82
2022/09/21 13:49:16;;;;;;;0.65;0.40;;;;;;;;;;10297421;28;20504;-82
2022/09/21 13:54:22;;;;;;;0.50;0.40;;;;;;;;;;10302237;28;20488;-82
2022/09/21 13:59:26;;;;;;;1.40;0.40;;;;;;;;;;10313462;28;20413;-82
2022/09/21 14:04:35;;;;;;;0.90;0.40;;;;;;;;;;10317165;28;20405;-82
2022/09/21 14:09:54;;;;;;;1.20;0.40;;;;;;;;;;10314712;28;20895;-81
2022/09/21 14:15:29;;;;;;;0.90;0.43;;;;;;;;;;10300931;28;20504;-82
2022/09/21 14:20:36;;;;;;;0.57;0.47;;;;;;;;;;10303616;28;20477;-82
2022/09/21 14:25:51;;;;;;;0.83;0.43;;;;;;;;;;10307317;28;20828;-82
2022/09/21 14:30:58;;;;;;;1.57;0.40;;;;;;;;;;10311899;28;20452;-82
2022/09/21 14:36:10;;;;;;;1.20;0.40;;;;;;;;;;10311519;28;20975;-81
2022/09/21 14:41:20;;;;;;;1.70;0.40;;;;;;;;;;10311998;28;20809;-82
2022/09/21 14:46:52;;;;;;;1.15;0.60;;;;;;;;;;10312331;28;20479;-80
2022/09/21 14:52:14;;;;;;;1.02;0.45;;;;;;;;;;10311519;28;20421;-82
2022/09/21 14:57:51;;;;;;;0.90;0.50;;;;;;;;;;10317503;28;20404;-81
2022/09/21 15:03:18;;;;;;;1.10;0.40;;;;;;;;;;10298344;28;20464;-81
2022/09/21 15:14:22;;;;;;;0.75;0.40;;;;;;;;;;10313904;28;20425;-81
2022/09/21 15:19:28;;;;;;;0.70;0.37;;;;;;;;;;10316957;28;20765;-81
2022/09/21 15:24:37;;;;;;;2.30;0.30;;;;;;;;;;10317012;28;20954;-81
2022/09/21 15:29:43;;;;;;;0.97;0.50;;;;;;;;;;10322099;28;21386;-81
2022/09/21 15:34:49;;;;;;;1.45;0.50;;;;;;;;;;10313528;28;20407;-81
2022/09/21 15:40:03;;;;;;;0.40;0.40;;;;;;;;;;10320582;28;20413;-81
2022/09/21 15:45:16;;;;;;;0.85;0.30;;;;;;;;;;10323197;28;20781;-81
2022/09/21 15:50:20;;;;;;;0.43;0.40;;;;;;;;;;10324648;28;20460;-80
2022/09/21 15:55:25;;;;;;;1.55;0.20;;;;;;;;;;10314844;28;20905;-80
2022/09/21 16:00:31;;;;;;;1.80;0.40;;;;;;;;;;10322956;28;20413;-80
2022/09/21 16:05:44;;;;;;;1.45;0.40;;;;;;;;;;10321023;28;20865;-81
2022/09/21 16:10:49;;;;;;;0.70;0.40;;;;;;;;;;10323346;28;20479;-82
2022/09/21 16:16:08;;;;;;;2.72;0.40;;;;;;;;;;10324999;28;20535;-81
2022/09/21 16:21:19;;;;;;;0.90;0.40;;;;;;;;;;10321941;28;20413;-82
2022/09/21 16:26:27;;;;;;;0.73;0.50;;;;;;;;;;10324210;28;20412;-81
2022/09/21 16:31:35;;;;;;;0.90;0.43;;;;;;;;;;10322822;28;20543;-80
2022/09/21 16:36:43;;;;;;;0.85;0.40;;;;;;;;;;10317337;28;20467;-82
2022/09/21 16:42:02;;;;;;;0.47;0.30;;;;;;;;;;10311300;28;20582;-82
2022/09/21 16:47:14;;;;;;;0.45;0.30;;;;;;;;;;10289716;28;20411;-82
2022/09/21 16:52:18;;;;;;;0.97;0.30;;;;;;;;;;10285527;28;20567;-82
2022/09/21 16:57:23;;;;;;;0.95;0.40;;;;;;;;;;10287291;28;20414;-82
2022/09/21 17:02:26;;;;;;;0.60;0.50;;;;;;;;;;10307453;28;20401;-82
2022/09/21 17:07:29;;;;;;;1.35;0.40;;;;;;;;;;10308478;28;20404;-81
2022/09/21 17:12:34;;;;;;;2.30;0.60;;;;;;;;;;10313432;28;20514;-81
2022/09/21 17:17:39;;;;;;;1.27;0.70;;;;;;;;;;10315262;28;20431;-82
2022/09/21 17:22:44;;;;;;;1.00;0.50;;;;;;;;;;10317932;28;20413;-82
2022/09/21 17:27:51;;;;;;;1.30;0.70;;;;;;;;;;10319329;28;20416;-79
2022/09/21 17:32:57;;;;;;;0.93;0.52;;;;;;;;;;10325092;28;20424;-83
2022/09/21 17:38:03;;;;;;;1.70;0.60;;;;;;;;;;10342059;28;20805;-82
2022/09/21 17:43:31;;;;;;;2.72;0.55;;;;;;;;;;10324391;28;20491;-82
2022/09/21 17:48:39;;;;;;;1.38;0.77;;;;;;;;;;10320839;28;20532;-81
2022/09/21 17:53:44;;;;;;;3.27;0.60;;;;;;;;;;10318137;28;20425;-82
2022/09/21 17:58:58;;;;;;;1.70;0.63;;;;;;;;;;10318629;28;20415;-82
2022/09/21 18:04:04;;;;;;;1.00;0.60;;;;;;;;;;10308871;28;20430;-81
2022/09/21 18:09:11;;;;;;;1.88;0.70;;;;;;;;;;10312632;28;20482;-82
2022/09/21 18:14:27;;;;;;;1.40;0.73;;;;;;;;;;10316299;28;20487;-82
2022/09/21 18:19:43;;;;;;;3.50;1.23;;;;;;;;;;10316163;28;20412;-82
2022/09/21 18:24:49;;;;;;;2.90;1.10;;;;;;;;;;10316264;28;20488;-82
2022/09/21 18:29:58;;;;;;;1.77;1.10;;;;;;;;;;10317751;28;20912;-80
2022/09/21 18:35:38;;;;;;;3.80;1.25;;;;;;;;;;10347435;28;20504;-81
2022/09/21 18:40:53;;;;;;;3.83;1.20;;;;;;;;;;10301017;28;20408;-80
2022/09/21 18:46:05;;;;;;;1.42;1.08;;;;;;;;;;10318819;28;20404;-81
2022/09/21 18:51:20;;;;;;;3.30;1.30;;;;;;;;;;10307579;28;20781;-80
2022/09/21 18:56:28;;;;;;;2.50;1.13;;;;;;;;;;10314817;28;20805;-82
2022/09/21 19:01:37;;;;;;;2.90;1.00;;;;;;;;;;10302018;28;20493;-81
2022/09/21 19:06:48;;;;;;;1.02;0.90;;;;;;;;;;10306349;28;20413;-82
2022/09/21 19:12:00;;;;;;;1.10;0.90;;;;;;;;;;10309013;28;20435;-82
2022/09/21 19:17:17;;;;;;;1.85;0.77;;;;;;;;;;10306933;28;20405;-81
2022/09/21 19:22:30;;;;;;;1.60;1.00;;;;;;;;;;10312061;28;20459;-82
2022/09/21 19:27:41;;;;;;;2.53;1.13;;;;;;;;;;10313383;28;20412;-81
2022/09/21 19:32:51;;;;;;;2.95;1.50;;;;;;;;;;10311678;28;20953;-81
2022/09/21 19:37:58;;;;;;;3.05;1.48;;;;;;;;;;10311788;28;22029;-82
2022/09/21 19:43:19;;;;;;;3.35;1.13;;;;;;;;;;10310583;28;20401;-82
2022/09/21 19:48:29;;;;;;;4.25;1.80;;;;;;;;;;10310994;28;21201;-81
2022/09/21 20:04:26;;;;;;;4.47;2.10;;;;;;;;;;10307386;28;20405;-81
2022/09/21 20:09:36;;;;;;;5.70;2.50;;;;;;;;;;10313392;28;20401;-82
2022/09/21 20:14:47;;;;;;;3.53;2.25;;;;;;;;;;10309505;28;20880;-81
2022/09/21 20:19:58;;;;;;;2.67;2.00;;;;;;;;;;10311986;28;20419;-81
2022/09/21 20:25:06;;;;;;;4.38;1.95;;;;;;;;;;10312229;28;20492;-81
2022/09/21 20:30:10;;;;;;;3.85;2.17;;;;;;;;;;10320570;28;20423;-82
2022/09/21 20:35:16;;;;;;;3.85;1.90;;;;;;;;;;10322028;28;20435;-82
2022/09/21 20:40:23;;;;;;;3.50;1.60;;;;;;;;;;10321518;28;20415;-83
2022/09/21 20:45:25;;;;;;;2.40;1.57;;;;;;;;;;10320460;28;20462;-83
2022/09/21 20:50:30;;;;;;;3.08;1.77;;;;;;;;;;10320904;28;21065;-83
2022/09/21 20:55:32;;;;;;;1.83;1.57;;;;;;;;;;10318576;28;20428;-83
2022/09/21 21:00:34;;;;;;;1.52;1.42;;;;;;;;;;10320339;28;20487;-82
2022/09/21 21:05:37;;;;;;;3.13;1.80;;;;;;;;;;10317932;28;20777;-83
2022/09/21 21:10:45;;;;;;;3.47;1.70;;;;;;;;;;10319514;28;21193;-82
2022/09/21 21:15:52;;;;;;;1.65;1.40;;;;;;;;;;10317494;28;20412;-83
2022/09/21 21:20:55;;;;;;;2.15;1.20;;;;;;;;;;10320825;28;20409;-83
2022/09/21 21:26:04;;;;;;;1.60;1.20;;;;;;;;;;10319383;28;20409;-83
2022/09/21 21:31:06;;;;;;;1.95;1.25;;;;;;;;;;10335901;28;20419;-83
2022/09/21 21:36:13;;;;;;;2.65;1.33;;;;;;;;;;10323179;28;20405;-83
2022/09/21 21:41:16;;;;;;;3.28;1.40;;;;;;;;;;10316946;28;20440;-82
2022/09/21 21:46:20;;;;;;;2.40;1.43;;;;;;;;;;10317697;28;20933;-82
2022/09/21 21:51:23;;;;;;;2.92;1.30;;;;;;;;;;10309748;28;20456;-81
2022/09/21 21:56:25;;;;;;;1.80;1.47;;;;;;;;;;10320229;28;20419;-82
2022/09/21 22:01:28;;;;;;;1.48;1.33;;;;;;;;;;10346321;28;20498;-82
2022/09/21 22:06:33;;;;;;;2.50;1.23;;;;;;;;;;10328097;28;20495;-82
2022/09/21 22:11:36;;;;;;;1.77;1.40;;;;;;;;;;10315847;28;20419;-82
2022/09/21 22:16:37;;;;;;;2.47;1.40;;;;;;;;;;10312653;28;20423;-81
2022/09/21 22:21:44;;;;;;;2.45;1.48;;;;;;;;;;10316142;28;20411;-82
2022/09/21 22:26:47;;;;;;;2.55;1.50;;;;;;;;;;10316806;28;20438;-82
2022/09/21 22:31:50;;;;;;;1.65;1.50;;;;;;;;;;10312651;28;20697;-82
2022/09/21 22:36:55;;;;;;;1.70;1.40;;;;;;;;;;10317600;28;20713;-82
2022/09/21 22:41:57;;;;;;;2.15;1.40;;;;;;;;;;10337101;28;20410;-82
2022/09/21 22:46:58;;;;;;;1.48;1.10;;;;;;;;;;10358837;28;20469;-82
2022/09/21 22:52:02;;;;;;;2.17;1.10;;;;;;;;;;10358505;28;20506;-82
2022/09/21 22:57:04;;;;;;;1.80;1.40;;;;;;;;;;10359452;28;20502;-82
2022/09/21 23:02:08;;;;;;;2.53;1.40;;;;;;;;;;10359526;28;20966;-82
2022/09/21 23:07:11;;;;;;;2.00;1.52;;;;;;;;;;10359132;28;20502;-82
2022/09/21 23:12:13;;;;;;;1.75;1.48;;;;;;;;;;10358828;28;20465;-81
2022/09/21 23:17:15;;;;;;;2.88;1.80;;;;;;;;;;10359110;28;20433;-82
2022/09/21 23:22:18;;;;;;;2.47;1.70;;;;;;;;;;10358765;28;21183;-82
2022/09/21 23:27:20;;;;;;;1.70;1.60;;;;;;;;;;10358671;28;20476;-81
2022/09/21 23:32:22;;;;;;;2.35;1.45;;;;;;;;;;10358241;28;20415;-82
2022/09/21 23:37:26;;;;;;;2.80;1.60;;;;;;;;;;10358653;28;20482;-82
2022/09/21 23:42:27;;;;;;;1.95;1.55;;;;;;;;;;10358135;28;20411;-82
2022/09/21 23:47:29;;;;;;;1.80;1.60;;;;;;;;;;10326757;28;20495;-82
2022/09/21 23:52:32;;;;;;;1.92;1.50;;;;;;;;;;10317524;28;20520;-82
2022/09/21 23:57:34;;;;;;;2.90;1.50;;;;;;;;;;10353653;28;20950;-82
